sensor_id;sensor_type;location;lat;lon;timestamp;temperature;humidity
15357;DHT22;7778;48.792;9.260;2024-01-30T00:01:10;4.20;99.90
15357;DHT22;7778;48.792;9.260;2024-01-30T00:03:57;4.20;99.90
15357;DHT22;7778;48.792;9.260;2024-01-30T00:06:43;4.20;99.90
15357;DHT22;7778;48.792;9.260;2024-01-30T00:09:29;4.20;99.90
15357;DHT22;7778;48.792;9.260;2024-01-30T00:12:14;4.20;99.90
15357;DHT22;7778;48.792;9.260;2024-01-30T00:15:00;4.30;99.90
15357;DHT22;7778;48.792;9.260;2024-01-30T00:17:45;4.00;99.90
15357;DHT22;7778;48.792;9.260;2024-01-30T00:20:32;4.10;99.90
15357;DHT22;7778;48.792;9.260;2024-01-30T00:23:18;4.30;99.90
15357;DHT22;7778;48.792;9.260;2024-01-30T00:26:03;4.40;99.90
15357;DHT22;7778;48.792;9.260;2024-01-30T00:28:49;4.50;99.90
15357;DHT22;7778;48.792;9.260;2024-01-30T00:31:35;4.70;99.90
15357;DHT22;7778;48.792;9.260;2024-01-30T00:34:21;4.80;99.90
15357;DHT22;7778;48.792;9.260;2024-01-30T00:37:08;4.90;99.90
15357;DHT22;7778;48.792;9.260;2024-01-30T00:39:54;4.90;99.90
15357;DHT22;7778;48.792;9.260;2024-01-30T00:42:39;5.00;99.90
15357;DHT22;7778;48.792;9.260;2024-01-30T00:45:25;5.00;99.90
15357;DHT22;7778;48.792;9.260;2024-01-30T00:48:10;5.00;99.90
15357;DHT22;7778;48.792;9.260;2024-01-30T00:50:56;5.00;99.90
15357;DHT22;7778;48.792;9.260;2024-01-30T00:53:43;5.00;99.90
15357;DHT22;7778;48.792;9.260;2024-01-30T00:56:28;5.20;99.90
15357;DHT22;7778;48.792;9.260;2024-01-30T00:59:15;5.30;99.90
15357;DHT22;7778;48.792;9.260;2024-01-30T01:02:00;5.40;99.90
15357;DHT22;7778;48.792;9.260;2024-01-30T01:04:46;5.20;99.90
15357;DHT22;7778;48.792;9.260;2024-01-30T01:07:31;5.20;99.90
15357;DHT22;7778;48.792;9.260;2024-01-30T01:10:18;5.20;99.90
15357;DHT22;7778;48.792;9.260;2024-01-30T01:13:04;5.00;99.90
15357;DHT22;7778;48.792;9.260;2024-01-30T01:15:50;4.80;99.90
15357;DHT22;7778;48.792;9.260;2024-01-30T01:18:35;4.80;99.90
15357;DHT22;7778;48.792;9.260;2024-01-30T01:21:21;4.70;99.90
15357;DHT22;7778;48.792;9.260;2024-01-30T01:24:07;4.70;99.90
15357;DHT22;7778;48.792;9.260;2024-01-30T01:26:54;4.50;99.90
15357;DHT22;7778;48.792;9.260;2024-01-30T01:29:41;4.50;99.90
15357;DHT22;7778;48.792;9.260;2024-01-30T01:32:27;4.50;99.90
15357;DHT22;7778;48.792;9.260;2024-01-30T01:35:13;4.30;99.90
15357;DHT22;7778;48.792;9.260;2024-01-30T01:37:58;4.20;99.90
15357;DHT22;7778;48.792;9.260;2024-01-30T01:40:44;4.30;99.90
15357;DHT22;7778;48.792;9.260;2024-01-30T01:43:31;4.40;99.90
15357;DHT22;7778;48.792;9.260;2024-01-30T01:46:17;4.50;99.90
15357;DHT22;7778;48.792;9.260;2024-01-30T01:49:04;4.70;99.90
15357;DHT22;7778;48.792;9.260;2024-01-30T01:51:53;5.00;99.90
15357;DHT22;7778;48.792;9.260;2024-01-30T01:54:41;5.00;99.90
15357;DHT22;7778;48.792;9.260;2024-01-30T01:57:26;5.00;99.90
15357;DHT22;7778;48.792;9.260;2024-01-30T02:00:14;5.10;99.90
15357;DHT22;7778;48.792;9.260;2024-01-30T02:03:00;5.20;99.90
15357;DHT22;7778;48.792;9.260;2024-01-30T02:05:46;5.00;99.90
15357;DHT22;7778;48.792;9.260;2024-01-30T02:08:32;5.00;99.90
15357;DHT22;7778;48.792;9.260;2024-01-30T02:11:20;4.70;99.90
15357;DHT22;7778;48.792;9.260;2024-01-30T02:14:05;4.60;99.90
15357;DHT22;7778;48.792;9.260;2024-01-30T02:16:52;4.60;99.90
15357;DHT22;7778;48.792;9.260;2024-01-30T02:19:38;4.50;99.90
15357;DHT22;7778;48.792;9.260;2024-01-30T02:22:25;4.30;99.90
15357;DHT22;7778;48.792;9.260;2024-01-30T02:25:11;4.10;99.90
15357;DHT22;7778;48.792;9.260;2024-01-30T02:27:56;4.10;99.90
15357;DHT22;7778;48.792;9.260;2024-01-30T02:30:43;4.00;99.90
15357;DHT22;7778;48.792;9.260;2024-01-30T02:33:28;4.10;99.90
15357;DHT22;7778;48.792;9.260;2024-01-30T02:36:14;4.20;99.90
15357;DHT22;7778;48.792;9.260;2024-01-30T02:39:02;4.30;99.90
15357;DHT22;7778;48.792;9.260;2024-01-30T02:41:48;4.00;99.90
15357;DHT22;7778;48.792;9.260;2024-01-30T02:44:33;4.00;99.90
15357;DHT22;7778;48.792;9.260;2024-01-30T02:47:19;3.90;99.90
15357;DHT22;7778;48.792;9.260;2024-01-30T02:50:05;3.80;99.90
15357;DHT22;7778;48.792;9.260;2024-01-30T02:52:51;3.60;99.90
15357;DHT22;7778;48.792;9.260;2024-01-30T02:55:38;3.60;99.90
15357;DHT22;7778;48.792;9.260;2024-01-30T02:58:24;4.00;99.90
15357;DHT22;7778;48.792;9.260;2024-01-30T03:01:09;3.80;99.90
15357;DHT22;7778;48.792;9.260;2024-01-30T03:03:55;4.00;99.90
15357;DHT22;7778;48.792;9.260;2024-01-30T03:06:45;3.80;99.90
15357;DHT22;7778;48.792;9.260;2024-01-30T03:09:31;3.70;99.90
15357;DHT22;7778;48.792;9.260;2024-01-30T03:12:18;3.60;99.90
15357;DHT22;7778;48.792;9.260;2024-01-30T03:15:04;3.50;99.90
15357;DHT22;7778;48.792;9.260;2024-01-30T03:17:50;3.50;99.90
15357;DHT22;7778;48.792;9.260;2024-01-30T03:20:36;3.50;99.90
15357;DHT22;7778;48.792;9.260;2024-01-30T03:23:21;3.60;99.90
15357;DHT22;7778;48.792;9.260;2024-01-30T03:26:06;3.70;99.90
15357;DHT22;7778;48.792;9.260;2024-01-30T03:28:54;3.80;99.90
15357;DHT22;7778;48.792;9.260;2024-01-30T03:31:40;3.80;99.90
15357;DHT22;7778;48.792;9.260;2024-01-30T03:34:25;3.90;99.90
15357;DHT22;7778;48.792;9.260;2024-01-30T03:37:11;3.90;99.90
15357;DHT22;7778;48.792;9.260;2024-01-30T03:39:56;3.70;99.90
15357;DHT22;7778;48.792;9.260;2024-01-30T03:42:42;3.50;99.90
15357;DHT22;7778;48.792;9.260;2024-01-30T03:45:29;3.50;99.90
15357;DHT22;7778;48.792;9.260;2024-01-30T03:48:14;3.40;99.90
15357;DHT22;7778;48.792;9.260;2024-01-30T03:51:00;3.30;99.90
15357;DHT22;7778;48.792;9.260;2024-01-30T03:53:46;3.20;99.90
15357;DHT22;7778;48.792;9.260;2024-01-30T03:56:31;3.00;99.90
15357;DHT22;7778;48.792;9.260;2024-01-30T03:59:17;3.00;99.90
15357;DHT22;7778;48.792;9.260;2024-01-30T04:02:10;3.00;99.90
15357;DHT22;7778;48.792;9.260;2024-01-30T04:04:55;2.90;99.90
15357;DHT22;7778;48.792;9.260;2024-01-30T04:07:41;2.90;99.90
15357;DHT22;7778;48.792;9.260;2024-01-30T04:10:27;2.80;99.90
15357;DHT22;7778;48.792;9.260;2024-01-30T04:13:13;2.70;99.90
15357;DHT22;7778;48.792;9.260;2024-01-30T04:15:59;2.70;99.90
15357;DHT22;7778;48.792;9.260;2024-01-30T04:18:46;2.70;99.90
15357;DHT22;7778;48.792;9.260;2024-01-30T04:21:32;2.80;99.90
15357;DHT22;7778;48.792;9.260;2024-01-30T04:24:17;2.70;99.90
15357;DHT22;7778;48.792;9.260;2024-01-30T04:27:03;2.70;99.90
15357;DHT22;7778;48.792;9.260;2024-01-30T04:29:49;2.70;99.90
15357;DHT22;7778;48.792;9.260;2024-01-30T04:32:35;2.80;99.90
15357;DHT22;7778;48.792;9.260;2024-01-30T04:35:23;2.60;99.90
15357;DHT22;7778;48.792;9.260;2024-01-30T04:38:09;2.60;99.90
15357;DHT22;7778;48.792;9.260;2024-01-30T04:40:54;2.40;99.90
15357;DHT22;7778;48.792;9.260;2024-01-30T04:43:40;2.40;99.90
15357;DHT22;7778;48.792;9.260;2024-01-30T04:46:25;2.40;99.90
15357;DHT22;7778;48.792;9.260;2024-01-30T04:49:11;2.50;99.90
15357;DHT22;7778;48.792;9.260;2024-01-30T04:51:58;2.50;99.90
15357;DHT22;7778;48.792;9.260;2024-01-30T04:54:43;2.40;99.90
15357;DHT22;7778;48.792;9.260;2024-01-30T04:57:28;2.40;99.90
15357;DHT22;7778;48.792;9.260;2024-01-30T05:00:15;2.40;99.90
15357;DHT22;7778;48.792;9.260;2024-01-30T05:03:01;2.50;99.90
15357;DHT22;7778;48.792;9.260;2024-01-30T05:05:47;2.50;99.90
15357;DHT22;7778;48.792;9.260;2024-01-30T05:08:34;2.50;99.90
15357;DHT22;7778;48.792;9.260;2024-01-30T05:11:20;2.40;99.90
15357;DHT22;7778;48.792;9.260;2024-01-30T05:14:07;2.40;99.90
15357;DHT22;7778;48.792;9.260;2024-01-30T05:16:52;2.40;99.90
15357;DHT22;7778;48.792;9.260;2024-01-30T05:19:38;2.30;99.90
15357;DHT22;7778;48.792;9.260;2024-01-30T05:22:24;2.50;99.90
15357;DHT22;7778;48.792;9.260;2024-01-30T05:25:11;2.60;99.90
15357;DHT22;7778;48.792;9.260;2024-01-30T05:27:57;2.60;99.90
15357;DHT22;7778;48.792;9.260;2024-01-30T05:30:42;2.60;99.90
15357;DHT22;7778;48.792;9.260;2024-01-30T05:33:28;2.70;99.90
15357;DHT22;7778;48.792;9.260;2024-01-30T05:36:13;2.70;99.90
15357;DHT22;7778;48.792;9.260;2024-01-30T05:38:59;2.70;99.90
15357;DHT22;7778;48.792;9.260;2024-01-30T05:41:46;2.70;99.90
15357;DHT22;7778;48.792;9.260;2024-01-30T05:44:31;2.80;99.90
15357;DHT22;7778;48.792;9.260;2024-01-30T05:47:17;2.80;99.90
15357;DHT22;7778;48.792;9.260;2024-01-30T05:50:03;2.80;99.90
15357;DHT22;7778;48.792;9.260;2024-01-30T05:52:49;2.90;99.90
15357;DHT22;7778;48.792;9.260;2024-01-30T05:55:35;2.80;99.90
15357;DHT22;7778;48.792;9.260;2024-01-30T05:58:21;3.00;99.90
15357;DHT22;7778;48.792;9.260;2024-01-30T06:01:07;2.90;99.90
15357;DHT22;7778;48.792;9.260;2024-01-30T06:03:53;2.90;99.90
15357;DHT22;7778;48.792;9.260;2024-01-30T06:06:39;3.00;99.90
15357;DHT22;7778;48.792;9.260;2024-01-30T06:09:24;3.00;99.90
15357;DHT22;7778;48.792;9.260;2024-01-30T06:12:10;3.10;99.90
15357;DHT22;7778;48.792;9.260;2024-01-30T06:14:58;2.90;99.90
15357;DHT22;7778;48.792;9.260;2024-01-30T06:17:43;2.90;99.90
15357;DHT22;7778;48.792;9.260;2024-01-30T06:20:28;2.90;99.90
15357;DHT22;7778;48.792;9.260;2024-01-30T06:23:14;2.90;99.90
15357;DHT22;7778;48.792;9.260;2024-01-30T06:26:00;3.00;99.90
15357;DHT22;7778;48.792;9.260;2024-01-30T06:28:45;2.90;99.90
15357;DHT22;7778;48.792;9.260;2024-01-30T06:31:32;2.70;99.90
15357;DHT22;7778;48.792;9.260;2024-01-30T06:34:17;2.70;99.90
15357;DHT22;7778;48.792;9.260;2024-01-30T06:37:03;2.80;99.90
15357;DHT22;7778;48.792;9.260;2024-01-30T06:39:49;2.70;99.90
15357;DHT22;7778;48.792;9.260;2024-01-30T06:42:35;2.70;99.90
15357;DHT22;7778;48.792;9.260;2024-01-30T06:45:20;2.70;99.90
15357;DHT22;7778;48.792;9.260;2024-01-30T06:48:08;2.70;99.90
15357;DHT22;7778;48.792;9.260;2024-01-30T06:50:54;2.70;99.90
15357;DHT22;7778;48.792;9.260;2024-01-30T06:53:41;2.90;99.90
15357;DHT22;7778;48.792;9.260;2024-01-30T06:56:28;3.00;99.90
15357;DHT22;7778;48.792;9.260;2024-01-30T06:59:13;3.10;99.90
15357;DHT22;7778;48.792;9.260;2024-01-30T07:01:59;3.20;99.90
15357;DHT22;7778;48.792;9.260;2024-01-30T07:04:46;3.20;99.90
15357;DHT22;7778;48.792;9.260;2024-01-30T07:07:31;3.30;99.90
15357;DHT22;7778;48.792;9.260;2024-01-30T07:10:17;3.40;99.90
15357;DHT22;7778;48.792;9.260;2024-01-30T07:13:03;3.50;99.90
15357;DHT22;7778;48.792;9.260;2024-01-30T07:15:50;3.60;99.90
15357;DHT22;7778;48.792;9.260;2024-01-30T07:18:36;3.40;99.90
15357;DHT22;7778;48.792;9.260;2024-01-30T07:21:23;3.60;99.90
15357;DHT22;7778;48.792;9.260;2024-01-30T07:24:12;3.40;99.90
15357;DHT22;7778;48.792;9.260;2024-01-30T07:26:58;3.50;99.90
15357;DHT22;7778;48.792;9.260;2024-01-30T07:29:43;3.50;99.90
15357;DHT22;7778;48.792;9.260;2024-01-30T07:32:29;3.50;99.90
15357;DHT22;7778;48.792;9.260;2024-01-30T07:35:16;3.60;99.90
15357;DHT22;7778;48.792;9.260;2024-01-30T07:38:03;3.70;99.90
15357;DHT22;7778;48.792;9.260;2024-01-30T07:40:49;3.70;99.90
15357;DHT22;7778;48.792;9.260;2024-01-30T07:43:35;3.60;99.90
15357;DHT22;7778;48.792;9.260;2024-01-30T07:46:20;3.60;99.90
15357;DHT22;7778;48.792;9.260;2024-01-30T07:49:06;3.50;99.90
15357;DHT22;7778;48.792;9.260;2024-01-30T07:51:51;3.40;99.90
15357;DHT22;7778;48.792;9.260;2024-01-30T07:54:41;3.40;99.90
15357;DHT22;7778;48.792;9.260;2024-01-30T07:57:27;3.40;99.90
15357;DHT22;7778;48.792;9.260;2024-01-30T08:00:14;3.40;99.90
15357;DHT22;7778;48.792;9.260;2024-01-30T08:03:01;3.50;99.90
15357;DHT22;7778;48.792;9.260;2024-01-30T08:05:46;3.70;99.90
15357;DHT22;7778;48.792;9.260;2024-01-30T08:08:32;3.90;99.90
15357;DHT22;7778;48.792;9.260;2024-01-30T08:11:19;4.10;99.90
15357;DHT22;7778;48.792;9.260;2024-01-30T08:14:09;4.20;99.90
15357;DHT22;7778;48.792;9.260;2024-01-30T08:16:55;4.30;99.90
15357;DHT22;7778;48.792;9.260;2024-01-30T08:19:40;4.40;99.90
15357;DHT22;7778;48.792;9.260;2024-01-30T08:22:26;4.60;99.90
15357;DHT22;7778;48.792;9.260;2024-01-30T08:25:11;4.70;99.90
15357;DHT22;7778;48.792;9.260;2024-01-30T08:27:58;4.80;99.90
15357;DHT22;7778;48.792;9.260;2024-01-30T08:30:44;4.90;99.90
15357;DHT22;7778;48.792;9.260;2024-01-30T08:33:29;5.00;99.90
15357;DHT22;7778;48.792;9.260;2024-01-30T08:36:16;5.10;99.90
15357;DHT22;7778;48.792;9.260;2024-01-30T08:39:01;5.20;99.90
15357;DHT22;7778;48.792;9.260;2024-01-30T08:41:51;5.10;99.90
15357;DHT22;7778;48.792;9.260;2024-01-30T08:44:40;5.30;99.90
15357;DHT22;7778;48.792;9.260;2024-01-30T08:47:25;5.50;99.90
15357;DHT22;7778;48.792;9.260;2024-01-30T08:50:11;5.50;99.90
15357;DHT22;7778;48.792;9.260;2024-01-30T08:52:56;5.80;99.90
15357;DHT22;7778;48.792;9.260;2024-01-30T08:55:42;6.00;99.90
15357;DHT22;7778;48.792;9.260;2024-01-30T08:58:27;6.20;99.90
15357;DHT22;7778;48.792;9.260;2024-01-30T09:01:15;6.50;99.90
15357;DHT22;7778;48.792;9.260;2024-01-30T09:04:01;6.80;99.90
15357;DHT22;7778;48.792;9.260;2024-01-30T09:06:47;7.00;99.90
15357;DHT22;7778;48.792;9.260;2024-01-30T09:09:33;7.20;99.90
15357;DHT22;7778;48.792;9.260;2024-01-30T09:12:18;7.50;99.90
15357;DHT22;7778;48.792;9.260;2024-01-30T09:15:04;7.80;99.90
15357;DHT22;7778;48.792;9.260;2024-01-30T09:17:52;8.00;99.90
15357;DHT22;7778;48.792;9.260;2024-01-30T09:20:38;8.40;99.90
15357;DHT22;7778;48.792;9.260;2024-01-30T09:23:23;8.30;99.90
15357;DHT22;7778;48.792;9.260;2024-01-30T09:26:09;8.40;99.90
15357;DHT22;7778;48.792;9.260;2024-01-30T09:28:54;8.50;99.90
15357;DHT22;7778;48.792;9.260;2024-01-30T09:31:43;8.80;99.90
15357;DHT22;7778;48.792;9.260;2024-01-30T09:34:30;9.40;99.90
15357;DHT22;7778;48.792;9.260;2024-01-30T09:37:15;9.60;99.90
15357;DHT22;7778;48.792;9.260;2024-01-30T09:40:02;9.70;99.90
15357;DHT22;7778;48.792;9.260;2024-01-30T09:42:50;10.00;99.90
15357;DHT22;7778;48.792;9.260;2024-01-30T09:45:36;10.40;99.90
15357;DHT22;7778;48.792;9.260;2024-01-30T09:48:22;11.20;99.90
15357;DHT22;7778;48.792;9.260;2024-01-30T09:51:10;12.00;99.90
15357;DHT22;7778;48.792;9.260;2024-01-30T09:53:56;12.10;99.90
15357;DHT22;7778;48.792;9.260;2024-01-30T09:56:42;12.00;99.90
15357;DHT22;7778;48.792;9.260;2024-01-30T09:59:27;12.20;99.90
15357;DHT22;7778;48.792;9.260;2024-01-30T10:02:13;12.40;99.90
15357;DHT22;7778;48.792;9.260;2024-01-30T10:05:00;11.80;99.90
15357;DHT22;7778;48.792;9.260;2024-01-30T10:07:56;11.70;99.90
15357;DHT22;7778;48.792;9.260;2024-01-30T10:10:46;12.10;99.90
15357;DHT22;7778;48.792;9.260;2024-01-30T10:13:32;12.80;99.90
15357;DHT22;7778;48.792;9.260;2024-01-30T10:16:18;13.40;99.90
15357;DHT22;7778;48.792;9.260;2024-01-30T10:19:04;13.70;99.90
15357;DHT22;7778;48.792;9.260;2024-01-30T10:21:49;13.60;99.90
15357;DHT22;7778;48.792;9.260;2024-01-30T10:24:36;13.40;99.90
15357;DHT22;7778;48.792;9.260;2024-01-30T10:27:25;13.70;99.90
15357;DHT22;7778;48.792;9.260;2024-01-30T10:30:11;14.00;99.90
15357;DHT22;7778;48.792;9.260;2024-01-30T10:32:57;14.20;99.90
15357;DHT22;7778;48.792;9.260;2024-01-30T10:35:43;14.10;99.90
15357;DHT22;7778;48.792;9.260;2024-01-30T10:38:31;14.10;99.90
15357;DHT22;7778;48.792;9.260;2024-01-30T10:41:26;13.60;99.90
15357;DHT22;7778;48.792;9.260;2024-01-30T10:44:15;13.50;99.90
15357;DHT22;7778;48.792;9.260;2024-01-30T10:47:06;13.10;99.90
15357;DHT22;7778;48.792;9.260;2024-01-30T10:49:57;13.10;99.90
15357;DHT22;7778;48.792;9.260;2024-01-30T10:52:43;12.60;99.90
15357;DHT22;7778;48.792;9.260;2024-01-30T10:55:29;12.80;99.90
15357;DHT22;7778;48.792;9.260;2024-01-30T10:58:16;12.90;99.90
15357;DHT22;7778;48.792;9.260;2024-01-30T11:01:03;13.00;99.90
15357;DHT22;7778;48.792;9.260;2024-01-30T11:03:50;13.10;99.90
15357;DHT22;7778;48.792;9.260;2024-01-30T11:06:41;13.00;99.90
15357;DHT22;7778;48.792;9.260;2024-01-30T11:09:29;12.80;99.90
15357;DHT22;7778;48.792;9.260;2024-01-30T11:12:15;12.70;99.90
15357;DHT22;7778;48.792;9.260;2024-01-30T11:15:07;12.80;99.90
15357;DHT22;7778;48.792;9.260;2024-01-30T11:17:53;12.90;99.90
15357;DHT22;7778;48.792;9.260;2024-01-30T11:20:46;12.90;99.90
15357;DHT22;7778;48.792;9.260;2024-01-30T11:23:34;13.10;99.90
15357;DHT22;7778;48.792;9.260;2024-01-30T11:26:27;13.40;99.90
15357;DHT22;7778;48.792;9.260;2024-01-30T11:29:13;13.40;99.90
15357;DHT22;7778;48.792;9.260;2024-01-30T11:32:00;13.30;99.90
15357;DHT22;7778;48.792;9.260;2024-01-30T11:34:46;13.10;99.90
15357;DHT22;7778;48.792;9.260;2024-01-30T11:37:36;13.10;99.90
15357;DHT22;7778;48.792;9.260;2024-01-30T11:40:22;13.10;99.90
15357;DHT22;7778;48.792;9.260;2024-01-30T11:43:10;13.20;99.90
15357;DHT22;7778;48.792;9.260;2024-01-30T11:45:56;13.20;99.90
15357;DHT22;7778;48.792;9.260;2024-01-30T11:48:43;13.30;99.90
15357;DHT22;7778;48.792;9.260;2024-01-30T11:51:31;13.40;99.90
15357;DHT22;7778;48.792;9.260;2024-01-30T11:54:17;13.40;99.90
15357;DHT22;7778;48.792;9.260;2024-01-30T11:57:04;13.00;99.90
15357;DHT22;7778;48.792;9.260;2024-01-30T11:59:50;12.80;99.90
15357;DHT22;7778;48.792;9.260;2024-01-30T12:02:36;12.80;99.90
15357;DHT22;7778;48.792;9.260;2024-01-30T12:05:24;12.60;99.90
15357;DHT22;7778;48.792;9.260;2024-01-30T12:08:15;12.80;99.90
15357;DHT22;7778;48.792;9.260;2024-01-30T12:11:01;12.60;99.90
15357;DHT22;7778;48.792;9.260;2024-01-30T12:13:49;12.70;99.90
15357;DHT22;7778;48.792;9.260;2024-01-30T12:16:36;12.70;99.90
15357;DHT22;7778;48.792;9.260;2024-01-30T12:19:22;13.00;99.90
15357;DHT22;7778;48.792;9.260;2024-01-30T12:22:10;13.10;99.90
15357;DHT22;7778;48.792;9.260;2024-01-30T12:24:56;13.10;99.90
15357;DHT22;7778;48.792;9.260;2024-01-30T12:27:43;13.00;99.90
15357;DHT22;7778;48.792;9.260;2024-01-30T12:30:30;12.90;99.90
15357;DHT22;7778;48.792;9.260;2024-01-30T12:33:19;12.90;99.90
15357;DHT22;7778;48.792;9.260;2024-01-30T12:36:05;13.10;99.90
15357;DHT22;7778;48.792;9.260;2024-01-30T12:38:52;13.30;99.90
15357;DHT22;7778;48.792;9.260;2024-01-30T12:41:38;13.50;99.90
15357;DHT22;7778;48.792;9.260;2024-01-30T12:44:24;13.60;99.90
15357;DHT22;7778;48.792;9.260;2024-01-30T12:47:10;13.60;99.90
15357;DHT22;7778;48.792;9.260;2024-01-30T12:49:55;13.70;99.90
15357;DHT22;7778;48.792;9.260;2024-01-30T12:52:41;13.70;99.90
15357;DHT22;7778;48.792;9.260;2024-01-30T12:55:28;13.80;99.90
15357;DHT22;7778;48.792;9.260;2024-01-30T12:58:14;13.80;99.90
15357;DHT22;7778;48.792;9.260;2024-01-30T13:01:00;13.70;99.90
15357;DHT22;7778;48.792;9.260;2024-01-30T13:03:46;13.90;99.90
15357;DHT22;7778;48.792;9.260;2024-01-30T13:06:32;13.70;99.90
15357;DHT22;7778;48.792;9.260;2024-01-30T13:09:17;13.90;99.90
15357;DHT22;7778;48.792;9.260;2024-01-30T13:12:05;13.80;99.90
15357;DHT22;7778;48.792;9.260;2024-01-30T13:14:51;13.70;99.90
15357;DHT22;7778;48.792;9.260;2024-01-30T13:17:42;13.90;99.90
15357;DHT22;7778;48.792;9.260;2024-01-30T13:20:28;14.00;99.90
15357;DHT22;7778;48.792;9.260;2024-01-30T13:23:14;14.00;99.90
15357;DHT22;7778;48.792;9.260;2024-01-30T13:25:59;13.80;99.90
15357;DHT22;7778;48.792;9.260;2024-01-30T13:28:46;13.80;99.90
15357;DHT22;7778;48.792;9.260;2024-01-30T13:31:32;13.90;99.90
15357;DHT22;7778;48.792;9.260;2024-01-30T13:34:18;13.90;99.90
15357;DHT22;7778;48.792;9.260;2024-01-30T13:37:04;14.00;99.90
15357;DHT22;7778;48.792;9.260;2024-01-30T13:39:50;13.90;99.90
15357;DHT22;7778;48.792;9.260;2024-01-30T13:42:36;14.00;99.90
15357;DHT22;7778;48.792;9.260;2024-01-30T13:45:23;13.90;99.90
15357;DHT22;7778;48.792;9.260;2024-01-30T13:48:08;13.80;99.90
15357;DHT22;7778;48.792;9.260;2024-01-30T13:50:54;13.70;99.90
15357;DHT22;7778;48.792;9.260;2024-01-30T13:53:40;13.80;99.90
15357;DHT22;7778;48.792;9.260;2024-01-30T13:56:25;13.30;99.90
15357;DHT22;7778;48.792;9.260;2024-01-30T13:59:11;13.40;99.90
15357;DHT22;7778;48.792;9.260;2024-01-30T14:01:58;13.50;99.90
15357;DHT22;7778;48.792;9.260;2024-01-30T14:04:44;13.40;99.90
15357;DHT22;7778;48.792;9.260;2024-01-30T14:07:30;13.60;99.90
15357;DHT22;7778;48.792;9.260;2024-01-30T14:10:16;13.60;99.90
15357;DHT22;7778;48.792;9.260;2024-01-30T14:13:01;13.60;99.90
15357;DHT22;7778;48.792;9.260;2024-01-30T14:15:47;13.60;99.90
15357;DHT22;7778;48.792;9.260;2024-01-30T14:18:34;13.40;99.90
15357;DHT22;7778;48.792;9.260;2024-01-30T14:21:20;13.40;99.90
15357;DHT22;7778;48.792;9.260;2024-01-30T14:24:06;13.10;99.90
15357;DHT22;7778;48.792;9.260;2024-01-30T14:26:52;13.00;99.90
15357;DHT22;7778;48.792;9.260;2024-01-30T14:29:38;12.60;99.90
15357;DHT22;7778;48.792;9.260;2024-01-30T14:32:25;12.30;99.90
15357;DHT22;7778;48.792;9.260;2024-01-30T14:35:16;12.40;99.90
15357;DHT22;7778;48.792;9.260;2024-01-30T14:38:03;12.50;99.90
15357;DHT22;7778;48.792;9.260;2024-01-30T14:40:51;12.70;99.90
15357;DHT22;7778;48.792;9.260;2024-01-30T14:43:37;12.70;99.90
15357;DHT22;7778;48.792;9.260;2024-01-30T14:46:26;12.70;99.90
15357;DHT22;7778;48.792;9.260;2024-01-30T14:49:11;12.70;99.90
15357;DHT22;7778;48.792;9.260;2024-01-30T14:52:01;12.50;99.90
15357;DHT22;7778;48.792;9.260;2024-01-30T14:54:48;12.40;99.90
15357;DHT22;7778;48.792;9.260;2024-01-30T14:57:33;12.30;99.90
15357;DHT22;7778;48.792;9.260;2024-01-30T15:00:20;12.30;99.90
15357;DHT22;7778;48.792;9.260;2024-01-30T15:03:06;12.20;99.90
15357;DHT22;7778;48.792;9.260;2024-01-30T15:05:51;12.10;99.90
15357;DHT22;7778;48.792;9.260;2024-01-30T15:08:40;12.00;99.90
15357;DHT22;7778;48.792;9.260;2024-01-30T15:11:26;12.00;99.90
15357;DHT22;7778;48.792;9.260;2024-01-30T15:14:14;12.10;99.90
15357;DHT22;7778;48.792;9.260;2024-01-30T15:17:00;12.10;99.90
15357;DHT22;7778;48.792;9.260;2024-01-30T15:19:49;12.10;99.90
15357;DHT22;7778;48.792;9.260;2024-01-30T15:22:34;12.00;99.90
15357;DHT22;7778;48.792;9.260;2024-01-30T15:25:22;11.90;99.90
15357;DHT22;7778;48.792;9.260;2024-01-30T15:28:07;11.90;99.90
15357;DHT22;7778;48.792;9.260;2024-01-30T15:30:55;11.90;99.90
15357;DHT22;7778;48.792;9.260;2024-01-30T15:33:41;11.70;99.90
15357;DHT22;7778;48.792;9.260;2024-01-30T15:36:29;11.40;99.90
15357;DHT22;7778;48.792;9.260;2024-01-30T15:39:15;11.20;99.90
15357;DHT22;7778;48.792;9.260;2024-01-30T15:42:04;11.10;99.90
15357;DHT22;7778;48.792;9.260;2024-01-30T15:44:50;11.00;99.90
15357;DHT22;7778;48.792;9.260;2024-01-30T15:47:36;11.00;99.90
15357;DHT22;7778;48.792;9.260;2024-01-30T15:50:22;10.90;99.90
15357;DHT22;7778;48.792;9.260;2024-01-30T15:53:08;10.80;99.90
15357;DHT22;7778;48.792;9.260;2024-01-30T15:55:53;10.80;99.90
15357;DHT22;7778;48.792;9.260;2024-01-30T15:58:40;10.70;99.90
15357;DHT22;7778;48.792;9.260;2024-01-30T16:01:26;10.60;99.90
15357;DHT22;7778;48.792;9.260;2024-01-30T16:04:11;10.50;99.90
15357;DHT22;7778;48.792;9.260;2024-01-30T16:06:57;10.50;99.90
15357;DHT22;7778;48.792;9.260;2024-01-30T16:09:43;10.40;99.90
15357;DHT22;7778;48.792;9.260;2024-01-30T16:12:29;10.40;99.90
15357;DHT22;7778;48.792;9.260;2024-01-30T16:15:16;10.40;99.90
15357;DHT22;7778;48.792;9.260;2024-01-30T16:18:02;10.40;99.90
15357;DHT22;7778;48.792;9.260;2024-01-30T16:20:48;10.40;99.90
15357;DHT22;7778;48.792;9.260;2024-01-30T16:23:33;10.40;99.90
15357;DHT22;7778;48.792;9.260;2024-01-30T16:26:19;10.60;99.90
15357;DHT22;7778;48.792;9.260;2024-01-30T16:29:06;10.30;99.90
15357;DHT22;7778;48.792;9.260;2024-01-30T16:31:53;10.30;99.90
15357;DHT22;7778;48.792;9.260;2024-01-30T16:34:40;10.30;99.90
15357;DHT22;7778;48.792;9.260;2024-01-30T16:37:25;10.20;99.90
15357;DHT22;7778;48.792;9.260;2024-01-30T16:40:13;10.10;99.90
15357;DHT22;7778;48.792;9.260;2024-01-30T16:42:59;10.10;99.90
15357;DHT22;7778;48.792;9.260;2024-01-30T16:45:45;10.00;99.90
15357;DHT22;7778;48.792;9.260;2024-01-30T16:48:32;9.90;99.90
15357;DHT22;7778;48.792;9.260;2024-01-30T16:51:18;9.90;99.90
15357;DHT22;7778;48.792;9.260;2024-01-30T16:54:03;9.80;99.90
15357;DHT22;7778;48.792;9.260;2024-01-30T16:56:49;9.70;99.90
15357;DHT22;7778;48.792;9.260;2024-01-30T16:59:34;9.70;99.90
15357;DHT22;7778;48.792;9.260;2024-01-30T17:02:20;9.80;99.90
15357;DHT22;7778;48.792;9.260;2024-01-30T17:05:07;9.70;99.90
15357;DHT22;7778;48.792;9.260;2024-01-30T17:07:54;9.70;99.90
15357;DHT22;7778;48.792;9.260;2024-01-30T17:10:39;9.70;99.90
15357;DHT22;7778;48.792;9.260;2024-01-30T17:13:25;9.70;99.90
15357;DHT22;7778;48.792;9.260;2024-01-30T17:16:10;9.70;99.90
15357;DHT22;7778;48.792;9.260;2024-01-30T17:18:56;9.70;99.90
15357;DHT22;7778;48.792;9.260;2024-01-30T17:21:43;9.60;99.90
15357;DHT22;7778;48.792;9.260;2024-01-30T17:24:29;9.40;99.90
15357;DHT22;7778;48.792;9.260;2024-01-30T17:27:15;9.60;99.90
15357;DHT22;7778;48.792;9.260;2024-01-30T17:30:01;9.60;99.90
15357;DHT22;7778;48.792;9.260;2024-01-30T17:32:47;9.50;99.90
15357;DHT22;7778;48.792;9.260;2024-01-30T17:35:33;9.40;99.90
15357;DHT22;7778;48.792;9.260;2024-01-30T17:38:20;9.50;99.90
15357;DHT22;7778;48.792;9.260;2024-01-30T17:41:05;9.50;99.90
15357;DHT22;7778;48.792;9.260;2024-01-30T17:43:50;9.40;99.90
15357;DHT22;7778;48.792;9.260;2024-01-30T17:46:37;9.40;99.90
15357;DHT22;7778;48.792;9.260;2024-01-30T17:49:22;9.30;99.90
15357;DHT22;7778;48.792;9.260;2024-01-30T17:52:09;9.30;99.90
15357;DHT22;7778;48.792;9.260;2024-01-30T17:54:56;9.20;99.90
15357;DHT22;7778;48.792;9.260;2024-01-30T17:57:42;9.10;99.90